LSZR/ACH METAR and TAF weather

Enter ICAO airport designator
Station Type Date Time Source
LSZR METAR 2020/08/05 15:50 UTC NOAA

LSZR 051550Z 36007KT 320V060 CAVOK 23/12 Q1017 NOSIG RMK L


Station Type Date Time Source
LSZR Decoded METAR 2020/08/05 15:50 UTC NOAA

Saint Gallen-Altenrhein, Switzerland (LSZR) 47-29-06N 009-33-43E
Aug 05, 2020 - 11:50 AM EDT / 2020.08.05 1550 UTC
Wind: from the N (360 degrees) at 8 MPH (7 KT) (direction variable):0
Visibility: greater than 7 mile(s):0
Temperature: 73 F (23 C)
Dew Point: 53 F (12 C)
Relative Humidity: 49%
Pressure (altimeter): 30.03 in. Hg (1017 hPa)
ob: LSZR 051550Z 36007KT 320V060 CAVOK 23/12 Q1017 NOSIG RMK L
cycle: 16

Station Type Date Time Source
LSZR TAF 2014/12/22 20:03 UTC NOAA

TAF
AMD LSZR 222054Z 2220/2224 CNL

Example: see airport list